Pisek, Czech Republic
Current Conditions -  °F | °C
As of 12:00 PM on Monday 20 Oct 2014 (Local Time) from LKLN Reporting Station
Overcast Overcast  
Wind Chill: 61°   Ceiling: 4100
Heat Index: 61°   Visibility: NA
Dew Point: 61°   Wind: 5mph
Humidity: 100%   Direction: 260°W
Pressure: 30.09"   Gusts: NA
Location:  49.31°N, 14.14°E
Report Text: LKLN 201000Z AUTO 26004KT 230V300 //// OVC041 16/16 Q1019
Loading
Personal Weather Stations






























Interactive Weather Map
Tropical Storm Tracking
New forecast layout! Learn more

10-Day Weather Forecast

Advertisements
Track Severe Weather on mobile